createdAt,value
2023-04-23T00:00:54.657Z,91.91
2023-04-23T00:03:12.212Z,90.91
2023-04-23T00:05:29.368Z,91.87
2023-04-23T00:07:47.699Z,91.41
2023-04-23T00:10:04.847Z,91.05
2023-04-23T00:12:21.856Z,91.76
2023-04-23T00:14:40.138Z,90.97
2023-04-23T00:16:57.509Z,91.00
2023-04-23T00:19:17.308Z,90.40
2023-04-23T00:21:34.341Z,91.37
2023-04-23T00:23:51.656Z,91.09
2023-04-23T00:26:08.987Z,91.19
2023-04-23T00:28:26.106Z,90.54
2023-04-23T00:30:43.352Z,92.59
2023-04-23T00:33:00.404Z,91.90
2023-04-23T00:35:17.414Z,93.37
2023-04-23T00:37:35.505Z,92.94
2023-04-23T00:39:52.586Z,92.63
2023-04-23T00:42:09.828Z,93.21
2023-04-23T00:44:26.895Z,93.72
2023-04-23T00:46:45.226Z,93.50
2023-04-23T00:49:04.490Z,93.50
2023-04-23T00:51:21.771Z,93.69
2023-04-23T00:53:38.695Z,93.98
2023-04-23T00:55:57.048Z,94.96
2023-04-23T00:58:14.314Z,93.66
2023-04-23T01:00:31.585Z,94.16
2023-04-23T01:02:48.758Z,93.44
2023-04-23T01:05:05.893Z,92.99
2023-04-23T01:07:23.132Z,93.35
2023-04-23T01:09:40.088Z,92.42
2023-04-23T01:11:57.322Z,92.90
2023-04-23T01:14:14.594Z,91.45
2023-04-23T01:16:31.873Z,92.53
2023-04-23T01:18:48.822Z,91.23
2023-04-23T01:21:05.713Z,91.54
2023-04-23T01:23:23.771Z,91.41
2023-04-23T01:25:40.791Z,90.84
2023-04-23T01:27:58.966Z,92.24
2023-04-23T01:30:15.985Z,92.83
2023-04-23T01:32:33.337Z,92.96
2023-04-23T01:34:50.315Z,92.56
2023-04-23T01:37:08.539Z,93.27
2023-04-23T01:39:25.811Z,92.97
2023-04-23T01:41:43.078Z,93.78
2023-04-23T01:44:00.288Z,93.04
2023-04-23T01:46:17.292Z,93.18
2023-04-23T01:48:35.398Z,92.29
2023-04-23T01:50:52.686Z,92.52
2023-04-23T01:53:09.720Z,91.94
2023-04-23T01:55:26.786Z,90.21
2023-04-23T01:57:44.037Z,90.35
2023-04-23T02:00:01.118Z,89.85
2023-04-23T02:02:18.205Z,89.48
2023-04-23T02:04:35.295Z,89.77
2023-04-23T02:06:52.573Z,90.09
2023-04-23T02:09:10.823Z,89.03
2023-04-23T02:11:27.853Z,88.98
2023-04-23T02:13:44.849Z,88.68
2023-04-23T02:16:01.926Z,88.61
2023-04-23T02:18:19.060Z,88.66
2023-04-23T02:20:36.374Z,89.07
2023-04-23T02:22:53.305Z,89.19
2023-04-23T02:25:10.543Z,89.32
2023-04-23T02:27:27.463Z,88.86
2023-04-23T02:29:44.566Z,90.03
2023-04-23T02:32:01.536Z,89.61
2023-04-23T02:34:18.581Z,90.54
2023-04-23T02:36:36.779Z,90.51
2023-04-23T02:38:53.836Z,90.35
2023-04-23T02:41:11.066Z,90.23
2023-04-23T02:43:28.142Z,91.13
2023-04-23T02:45:45.077Z,92.24
2023-04-23T02:48:02.206Z,91.88
2023-04-23T02:50:19.222Z,92.77
2023-04-23T02:52:36.238Z,91.87
2023-04-23T02:54:53.331Z,91.70
2023-04-23T02:57:10.646Z,91.82
2023-04-23T02:59:27.947Z,92.20
2023-04-23T03:01:45.250Z,93.02
2023-04-23T03:04:02.566Z,93.51
2023-04-23T03:06:19.965Z,93.12
2023-04-23T03:08:37.025Z,92.47
2023-04-23T03:10:54.057Z,92.00
2023-04-23T03:13:11.405Z,92.73
2023-04-23T03:15:29.444Z,92.02
2023-04-23T03:17:46.723Z,92.22
2023-04-23T03:20:04.218Z,92.16
2023-04-23T03:22:21.539Z,91.54
2023-04-23T03:24:38.951Z,91.40
2023-04-23T03:26:56.403Z,90.75
2023-04-23T03:29:13.408Z,90.72
2023-04-23T03:31:30.733Z,90.92
2023-04-23T03:33:47.996Z,91.12
2023-04-23T03:36:05.252Z,89.65
2023-04-23T03:38:23.239Z,90.26
2023-04-23T03:40:40.306Z,91.46
2023-04-23T03:42:57.265Z,90.92
2023-04-23T03:45:14.478Z,91.07
2023-04-23T03:47:31.804Z,91.29
2023-04-23T03:49:48.833Z,91.16
2023-04-23T03:52:06.186Z,91.37
2023-04-23T03:54:23.208Z,92.45
2023-04-23T03:56:40.424Z,92.20
2023-04-23T03:58:57.519Z,92.76
2023-04-23T04:01:14.836Z,92.32
2023-04-23T04:03:32.947Z,93.37
2023-04-23T04:05:50.087Z,92.75
2023-04-23T04:08:07.143Z,92.29
2023-04-23T04:10:24.132Z,92.14
2023-04-23T04:12:41.409Z,92.55
2023-04-23T04:14:58.438Z,92.33
2023-04-23T04:17:15.743Z,91.96
2023-04-23T04:19:32.681Z,92.17
2023-04-23T04:21:50.613Z,92.68
2023-04-23T04:24:07.654Z,92.69
2023-04-23T04:26:24.837Z,92.22
2023-04-23T04:28:41.890Z,92.04
2023-04-23T04:30:58.805Z,92.83
2023-04-23T04:33:15.861Z,93.71
2023-04-23T04:35:32.809Z,92.75
2023-04-23T04:37:49.764Z,94.25
2023-04-23T04:40:06.764Z,94.67
2023-04-23T04:42:23.773Z,94.81
2023-04-23T04:44:41.092Z,94.29
2023-04-23T04:46:58.372Z,94.92
2023-04-23T04:49:15.668Z,95.51
2023-04-23T04:51:32.641Z,94.23
2023-04-23T04:53:49.732Z,95.60
2023-04-23T04:56:07.062Z,94.50
2023-04-23T04:58:24.122Z,95.74
2023-04-23T05:00:42.312Z,94.64
2023-04-23T05:02:59.465Z,94.98
2023-04-23T05:05:17.712Z,95.88
2023-04-23T05:07:34.782Z,96.07
2023-04-23T05:09:51.759Z,95.38
2023-04-23T05:12:09.016Z,94.33
2023-04-23T05:14:26.053Z,95.11
2023-04-23T05:16:43.357Z,94.58
2023-04-23T05:19:00.622Z,94.84
2023-04-23T05:21:18.559Z,94.58
2023-04-23T05:23:35.628Z,95.71
2023-04-23T05:25:54.213Z,95.07
2023-04-23T05:28:11.516Z,95.64
2023-04-23T05:30:29.540Z,94.95
2023-04-23T05:32:47.764Z,94.65
2023-04-23T05:35:04.779Z,94.99
2023-04-23T05:37:21.688Z,95.51
2023-04-23T05:39:38.642Z,95.06
2023-04-23T05:41:55.614Z,94.95
2023-04-23T05:44:12.618Z,95.70
2023-04-23T05:46:29.648Z,96.47
2023-04-23T05:48:46.983Z,96.04
2023-04-23T05:51:04.941Z,95.58
2023-04-23T05:53:23.162Z,95.87
2023-04-23T05:55:39.994Z,95.71
2023-04-23T05:57:57.053Z,96.18
2023-04-23T06:00:13.982Z,96.47
2023-04-23T06:02:31.008Z,96.47
2023-04-23T06:04:48.581Z,96.40
2023-04-23T06:07:06.072Z,95.77
2023-04-23T06:09:23.134Z,96.18
2023-04-23T06:11:40.164Z,95.92
2023-04-23T06:13:57.429Z,95.48
2023-04-23T06:16:14.453Z,94.83
2023-04-23T06:18:31.674Z,95.75
2023-04-23T06:20:48.896Z,95.24
2023-04-23T06:23:05.908Z,94.95
2023-04-23T06:25:22.985Z,93.40
2023-04-23T06:27:40.226Z,93.01
2023-04-23T06:29:57.268Z,92.34
2023-04-23T06:32:14.496Z,91.47
2023-04-23T06:34:31.559Z,92.50
2023-04-23T06:36:48.625Z,93.04
2023-04-23T06:39:05.662Z,92.55
2023-04-23T06:41:23.562Z,93.06
2023-04-23T06:43:40.904Z,93.72
2023-04-23T06:45:58.896Z,94.06
2023-04-23T06:48:16.046Z,93.28
2023-04-23T06:50:33.032Z,93.27
2023-04-23T06:52:51.080Z,92.43
2023-04-23T06:55:08.208Z,92.13
2023-04-23T06:57:26.256Z,92.35
2023-04-23T06:59:44.216Z,91.30
2023-04-23T07:02:02.297Z,89.60
2023-04-23T07:04:19.365Z,89.62
2023-04-23T07:06:36.635Z,88.75
2023-04-23T07:08:53.632Z,87.93
2023-04-23T07:11:10.690Z,87.06
2023-04-23T07:13:27.938Z,86.64
2023-04-23T07:15:45.847Z,87.43
2023-04-23T07:18:03.014Z,85.75
2023-04-23T07:20:20.136Z,84.76
2023-04-23T07:22:37.098Z,83.22
2023-04-23T07:24:54.002Z,84.44
2023-04-23T07:27:11.038Z,83.38
2023-04-23T07:29:28.105Z,82.59
2023-04-23T07:31:45.163Z,80.86
2023-04-23T07:34:02.135Z,81.09
2023-04-23T07:36:19.371Z,79.87
2023-04-23T07:38:37.705Z,80.28
2023-04-23T07:40:54.560Z,81.08
2023-04-23T07:43:11.639Z,78.50
2023-04-23T07:45:28.591Z,76.90
2023-04-23T07:47:45.617Z,76.73
2023-04-23T07:50:02.906Z,76.08
2023-04-23T07:52:20.178Z,74.34
2023-04-23T07:54:37.094Z,74.31
2023-04-23T07:56:54.368Z,73.05
2023-04-23T07:59:12.628Z,71.55
2023-04-23T08:01:29.572Z,71.53
2023-04-23T08:03:46.788Z,72.08
2023-04-23T08:06:04.139Z,71.99
2023-04-23T08:08:21.367Z,71.74
2023-04-23T08:10:38.405Z,73.37
2023-04-23T08:12:55.239Z,73.30
2023-04-23T08:15:12.538Z,72.87
2023-04-23T08:17:29.627Z,72.70
2023-04-23T08:19:46.636Z,70.72
2023-04-23T08:22:03.780Z,72.19
2023-04-23T08:24:20.902Z,72.96
2023-04-23T08:26:37.895Z,73.45
2023-04-23T08:28:55.181Z,72.36
2023-04-23T08:31:22.867Z,72.55
2023-04-23T08:33:43.169Z,70.37
2023-04-23T08:36:00.212Z,71.53
2023-04-23T08:38:18.273Z,71.60
2023-04-23T08:40:35.467Z,70.94
2023-04-23T08:42:52.514Z,70.00
2023-04-23T08:45:09.784Z,70.56
2023-04-23T08:47:26.858Z,70.23
2023-04-23T08:49:43.972Z,70.12
2023-04-23T08:52:01.249Z,71.48
2023-04-23T08:54:19.602Z,72.13
2023-04-23T08:56:36.875Z,71.47
2023-04-23T08:58:56.383Z,71.29
2023-04-23T09:01:14.123Z,71.66
2023-04-23T09:03:31.303Z,71.97
2023-04-23T09:05:48.367Z,72.12
2023-04-23T09:08:05.402Z,73.35
2023-04-23T09:10:22.756Z,69.11
2023-04-23T09:12:39.836Z,69.31
2023-04-23T09:14:56.829Z,67.75
2023-04-23T09:17:13.844Z,68.16
2023-04-23T09:19:30.892Z,65.99
2023-04-23T09:21:47.896Z,66.64
2023-04-23T09:24:05.111Z,67.13
2023-04-23T09:26:22.143Z,68.08
2023-04-23T09:28:39.154Z,67.34
2023-04-23T09:30:57.197Z,68.15
2023-04-23T09:33:14.444Z,66.38
2023-04-23T09:35:31.447Z,67.47
2023-04-23T09:37:49.506Z,67.82
2023-04-23T09:40:06.903Z,67.45
2023-04-23T09:42:23.971Z,67.85
2023-04-23T09:44:40.901Z,66.76
2023-04-23T09:46:58.139Z,66.67
2023-04-23T09:49:15.042Z,66.51
2023-04-23T09:51:32.116Z,66.95
2023-04-23T09:53:49.110Z,66.30
2023-04-23T09:56:06.177Z,64.53
2023-04-23T09:58:23.383Z,64.88
2023-04-23T10:00:40.625Z,64.50
2023-04-23T10:02:57.939Z,65.25
2023-04-23T10:07:38.878Z,64.57
2023-04-23T10:09:56.133Z,63.39
2023-04-23T10:12:31.416Z,64.47
2023-04-23T10:14:50.277Z,64.63
2023-04-23T10:17:07.359Z,63.75
2023-04-23T10:19:24.637Z,63.25
2023-04-23T10:21:52.334Z,62.40
2023-04-23T10:24:12.173Z,62.12
2023-04-23T10:26:29.182Z,62.98
2023-04-23T10:28:46.190Z,61.73
2023-04-23T10:31:03.147Z,61.94
2023-04-23T10:33:29.398Z,61.16
2023-04-23T10:35:48.760Z,61.16
2023-04-23T10:38:05.818Z,62.16
2023-04-23T10:40:22.792Z,58.88
2023-04-23T10:42:39.866Z,59.82
2023-04-23T10:45:02.648Z,61.08
2023-04-23T10:47:24.376Z,60.84
2023-04-23T10:49:42.623Z,56.71
2023-04-23T10:52:18.902Z,57.44
2023-04-23T10:54:36.635Z,57.40
2023-04-23T10:56:53.653Z,61.10
2023-04-23T10:59:10.638Z,59.87
2023-04-23T11:01:27.677Z,58.09
2023-04-23T11:03:45.245Z,60.39
2023-04-23T11:06:02.473Z,60.21
2023-04-23T11:08:20.164Z,60.17
2023-04-23T11:10:37.184Z,60.50
2023-04-23T11:12:54.449Z,62.33
2023-04-23T11:15:11.409Z,59.26
2023-04-23T11:17:28.670Z,61.05
2023-04-23T11:19:47.054Z,59.03
2023-04-23T11:22:04.129Z,55.79
2023-04-23T11:24:21.463Z,57.91
2023-04-23T11:26:38.493Z,55.99
2023-04-23T11:28:55.596Z,55.87
2023-04-23T11:31:12.617Z,56.23
2023-04-23T11:33:29.912Z,57.55
2023-04-23T11:35:47.019Z,57.07
2023-04-23T11:38:04.263Z,56.47
2023-04-23T11:40:22.325Z,55.37
2023-04-23T11:42:39.324Z,53.81
2023-04-23T11:44:56.247Z,54.20
2023-04-23T11:47:13.546Z,54.95
2023-04-23T11:49:30.793Z,55.08
2023-04-23T11:51:47.715Z,55.25
2023-04-23T11:54:04.956Z,55.16
2023-04-23T11:56:21.987Z,55.24
2023-04-23T11:58:39.464Z,54.38
2023-04-23T12:00:56.457Z,54.04
2023-04-23T12:03:13.511Z,54.45
2023-04-23T12:05:30.702Z,51.89
2023-04-23T12:07:48.060Z,50.38
2023-04-23T12:10:05.057Z,50.51
2023-04-23T12:12:22.319Z,50.42
2023-04-23T12:14:39.416Z,49.85
2023-04-23T12:16:57.326Z,48.55
2023-04-23T12:19:14.363Z,51.38
2023-04-23T12:21:31.633Z,51.90
2023-04-23T12:23:48.668Z,51.54
2023-04-23T12:26:05.602Z,51.92
2023-04-23T12:28:22.835Z,50.85
2023-04-23T12:30:40.094Z,49.81
2023-04-23T12:32:57.160Z,50.15
2023-04-23T12:35:14.408Z,49.51
2023-04-23T12:37:31.487Z,51.57
2023-04-23T12:39:48.707Z,51.97
2023-04-23T12:42:05.867Z,49.72
2023-04-23T12:44:23.162Z,51.28
2023-04-23T12:46:40.534Z,52.16
2023-04-23T12:48:58.562Z,52.45
2023-04-23T12:51:15.500Z,52.29
2023-04-23T12:53:33.558Z,52.38
2023-04-23T12:55:50.582Z,52.55
2023-04-23T12:58:08.600Z,51.24
2023-04-23T13:00:25.962Z,50.49
2023-04-23T13:02:43.219Z,51.55
2023-04-23T13:05:00.374Z,51.46
2023-04-23T13:07:17.265Z,51.06
2023-04-23T13:09:34.546Z,52.82
2023-04-23T13:11:52.781Z,52.57
2023-04-23T13:14:09.637Z,52.12
2023-04-23T13:16:27.919Z,52.19
2023-04-23T13:18:46.092Z,51.04
2023-04-23T13:21:03.085Z,50.83
2023-04-23T13:23:20.089Z,52.27
2023-04-23T13:25:37.100Z,52.65
2023-04-23T13:27:54.071Z,51.24
2023-04-23T13:30:11.117Z,51.92
2023-04-23T13:32:28.129Z,50.94
2023-04-23T13:34:45.392Z,49.78
2023-04-23T13:37:02.466Z,50.35
2023-04-23T13:39:20.779Z,50.24
2023-04-23T13:41:37.789Z,49.92
2023-04-23T13:43:55.703Z,51.34
2023-04-23T13:46:12.766Z,50.19
2023-04-23T13:48:29.794Z,51.51
2023-04-23T13:50:46.799Z,51.41
2023-04-23T13:53:03.765Z,52.29
2023-04-23T13:55:20.708Z,50.90
2023-04-23T13:57:37.937Z,51.31
2023-04-23T13:59:55.006Z,50.13
2023-04-23T14:02:12.281Z,50.17
2023-04-23T14:04:29.626Z,49.67
2023-04-23T14:06:46.787Z,49.37
2023-04-23T14:09:03.847Z,50.70
2023-04-23T14:11:21.103Z,49.36
2023-04-23T14:13:38.058Z,48.82
2023-04-23T14:15:55.040Z,50.22
2023-04-23T14:18:13.040Z,49.98
2023-04-23T14:20:29.902Z,50.47
2023-04-23T14:22:46.930Z,49.57
2023-04-23T14:25:04.834Z,49.48
2023-04-23T14:27:21.722Z,50.09
2023-04-23T14:29:38.733Z,49.21
2023-04-23T14:31:56.053Z,50.25
2023-04-23T14:34:13.101Z,50.32
2023-04-23T14:36:30.137Z,50.15
2023-04-23T14:38:47.150Z,50.15
2023-04-23T14:41:05.185Z,49.58
2023-04-23T14:43:22.453Z,48.91
2023-04-23T14:45:39.769Z,49.34
2023-04-23T14:47:57.719Z,47.55
2023-04-23T14:50:14.855Z,46.75
2023-04-23T14:52:32.912Z,46.07
2023-04-23T14:54:50.307Z,46.20
2023-04-23T14:57:07.357Z,48.56
2023-04-23T14:59:24.686Z,51.67
2023-04-23T15:01:41.753Z,51.49
2023-04-23T15:03:58.902Z,53.41
2023-04-23T15:06:16.866Z,57.26
2023-04-23T15:08:33.992Z,58.57
2023-04-23T15:10:51.252Z,60.47
2023-04-23T15:13:09.513Z,63.77
2023-04-23T15:15:37.060Z,63.07
2023-04-23T15:18:00.612Z,64.93
2023-04-23T15:20:17.702Z,65.90
2023-04-23T15:22:34.711Z,65.39
2023-04-23T15:24:52.010Z,65.77
2023-04-23T15:27:09.086Z,67.36
2023-04-23T15:29:26.165Z,68.61
2023-04-23T15:31:43.273Z,69.46
2023-04-23T15:34:01.347Z,67.91
2023-04-23T15:36:18.341Z,70.75
2023-04-23T15:38:35.239Z,67.74
2023-04-23T15:40:52.238Z,68.41
2023-04-23T15:43:09.146Z,68.89
2023-04-23T15:45:26.539Z,70.63
2023-04-23T15:47:43.891Z,70.88
2023-04-23T15:50:00.979Z,70.34
2023-04-23T15:52:18.067Z,71.22
2023-04-23T15:54:35.043Z,70.38
2023-04-23T15:56:52.080Z,70.21
2023-04-23T15:59:11.677Z,70.07
2023-04-23T16:01:29.067Z,70.98
2023-04-23T16:04:01.864Z,70.17
2023-04-23T16:06:23.349Z,70.93
2023-04-23T16:08:40.299Z,70.49
2023-04-23T16:10:57.505Z,70.50
2023-04-23T16:13:14.813Z,70.45
2023-04-23T16:15:31.890Z,70.58
2023-04-23T16:17:49.297Z,70.40
2023-04-23T16:20:07.333Z,71.11
2023-04-23T16:22:24.439Z,71.35
2023-04-23T16:24:41.425Z,71.75
2023-04-23T16:26:58.375Z,73.02
2023-04-23T16:29:22.256Z,72.54
2023-04-23T16:31:40.373Z,73.40
2023-04-23T16:33:57.642Z,75.17
2023-04-23T16:36:14.919Z,75.24
2023-04-23T16:38:31.883Z,77.30
2023-04-23T16:40:48.920Z,78.44
2023-04-23T16:43:05.970Z,78.29
2023-04-23T16:45:23.232Z,78.56
2023-04-23T16:47:40.344Z,77.78
2023-04-23T16:49:58.457Z,78.15
2023-04-23T16:52:15.773Z,80.01
2023-04-23T16:54:32.836Z,79.72
2023-04-23T16:56:50.179Z,80.38
2023-04-23T16:59:07.487Z,81.08
2023-04-23T17:01:24.514Z,83.73
2023-04-23T17:03:41.711Z,82.75
2023-04-23T17:06:00.123Z,82.30
2023-04-23T17:08:17.140Z,83.29
2023-04-23T17:10:34.453Z,81.56
2023-04-23T17:12:51.441Z,81.38
2023-04-23T17:15:09.461Z,80.34
2023-04-23T17:17:26.641Z,80.47
2023-04-23T17:19:44.732Z,79.14
2023-04-23T17:22:02.035Z,80.41
2023-04-23T17:24:19.072Z,82.50
2023-04-23T17:26:36.156Z,80.84
2023-04-23T17:28:53.457Z,83.77
2023-04-23T17:31:10.433Z,84.43
2023-04-23T17:33:28.430Z,86.28
2023-04-23T17:35:45.684Z,87.04
2023-04-23T17:38:02.728Z,86.34
2023-04-23T17:40:20.225Z,88.24
2023-04-23T17:42:37.730Z,89.20
2023-04-23T17:44:54.786Z,88.61
2023-04-23T17:47:11.651Z,87.38
2023-04-23T17:49:28.570Z,86.81
2023-04-23T17:51:45.460Z,87.64
2023-04-23T17:54:02.648Z,88.54
2023-04-23T17:56:19.605Z,89.94
2023-04-23T17:58:38.219Z,87.00
2023-04-23T18:00:55.862Z,87.14
2023-04-23T18:03:13.376Z,85.96
2023-04-23T18:05:30.479Z,86.16
2023-04-23T18:07:47.421Z,85.38
2023-04-23T18:10:04.723Z,85.76
2023-04-23T18:12:21.869Z,84.95
2023-04-23T18:14:40.271Z,84.59
2023-04-23T18:16:57.383Z,84.16
2023-04-23T18:19:17.894Z,84.95
2023-04-23T18:21:34.898Z,85.68
2023-04-23T18:23:51.946Z,84.79
2023-04-23T18:26:08.842Z,84.20
2023-04-23T18:28:25.829Z,85.14
2023-04-23T18:30:42.924Z,83.64
2023-04-23T18:32:59.982Z,85.16
2023-04-23T18:35:17.992Z,84.03
2023-04-23T18:37:35.024Z,84.95
2023-04-23T18:39:52.121Z,84.42
2023-04-23T18:42:09.469Z,85.01
2023-04-23T18:44:26.408Z,82.42
2023-04-23T18:46:43.441Z,84.09
2023-04-23T18:49:00.860Z,84.43
2023-04-23T18:51:18.206Z,83.49
2023-04-23T18:53:35.250Z,82.64
2023-04-23T18:55:52.216Z,83.13
2023-04-23T18:58:09.306Z,83.92
2023-04-23T19:00:26.331Z,85.16
2023-04-23T19:02:44.667Z,84.72
2023-04-23T19:05:01.805Z,84.46
2023-04-23T19:07:18.792Z,86.14
2023-04-23T19:09:36.089Z,85.17
2023-04-23T19:11:54.425Z,85.28
2023-04-23T19:14:11.691Z,85.44
2023-04-23T19:16:28.775Z,85.48
2023-04-23T19:18:46.243Z,86.46
2023-04-23T19:21:03.353Z,85.63
2023-04-23T19:23:20.378Z,85.24
2023-04-23T19:25:37.268Z,85.94
2023-04-23T19:27:54.239Z,86.32
2023-04-23T19:30:11.566Z,86.95
2023-04-23T19:32:28.549Z,86.62
2023-04-23T19:34:45.980Z,86.48
2023-04-23T19:37:02.945Z,86.62
2023-04-23T19:39:20.026Z,85.62
2023-04-23T19:41:37.359Z,86.73
2023-04-23T19:43:54.416Z,86.08
2023-04-23T19:46:11.770Z,86.27
2023-04-23T19:48:29.127Z,86.88
2023-04-23T19:50:46.126Z,87.18
2023-04-23T19:53:03.087Z,87.29
2023-04-23T19:55:20.168Z,88.01
2023-04-23T19:57:38.125Z,88.45
2023-04-23T19:59:55.404Z,89.74
2023-04-23T20:02:12.583Z,90.39
2023-04-23T20:04:29.751Z,90.19
2023-04-23T20:06:46.957Z,91.21
2023-04-23T20:09:03.933Z,90.22
2023-04-23T20:11:20.904Z,90.88
2023-04-23T20:13:38.256Z,91.10
2023-04-23T20:15:55.197Z,90.69
2023-04-23T20:18:12.189Z,90.38
2023-04-23T20:20:30.562Z,89.95
2023-04-23T20:22:47.588Z,90.55
2023-04-23T20:25:04.517Z,90.14
2023-04-23T20:27:22.553Z,90.36
2023-04-23T20:29:39.655Z,90.39
2023-04-23T20:31:57.105Z,90.79
2023-04-23T20:34:14.063Z,90.92
2023-04-23T20:36:31.273Z,91.21
2023-04-23T20:38:48.405Z,91.28
2023-04-23T20:41:05.449Z,91.07
2023-04-23T20:43:22.518Z,91.63
2023-04-23T20:45:39.579Z,91.64
2023-04-23T20:47:56.664Z,92.30
2023-04-23T20:50:13.679Z,91.89
2023-04-23T20:52:30.655Z,91.50
2023-04-23T20:54:48.028Z,91.74
2023-04-23T20:57:04.982Z,91.58
2023-04-23T20:59:21.892Z,91.35
2023-04-23T21:01:39.047Z,91.46
2023-04-23T21:03:56.259Z,91.20
2023-04-23T21:06:13.798Z,90.55
2023-04-23T21:08:30.714Z,90.89
2023-04-23T21:10:48.603Z,90.62
2023-04-23T21:13:06.580Z,90.62
2023-04-23T21:15:23.863Z,90.92
2023-04-23T21:17:40.848Z,90.71
2023-04-23T21:19:59.188Z,90.33
2023-04-23T21:22:16.205Z,90.09
2023-04-23T21:24:33.210Z,90.40
2023-04-23T21:26:50.549Z,90.32
2023-04-23T21:29:08.822Z,90.33
2023-04-23T21:31:25.846Z,89.53
2023-04-23T21:33:43.156Z,89.78
2023-04-23T21:36:00.516Z,89.61
2023-04-23T21:38:17.790Z,89.50
2023-04-23T21:40:35.065Z,89.86
2023-04-23T21:42:52.390Z,89.83
2023-04-23T21:45:09.725Z,89.89
2023-04-23T21:47:26.747Z,89.61
2023-04-23T21:49:44.372Z,89.46
2023-04-23T21:52:01.480Z,89.96
2023-04-23T21:54:18.438Z,89.88
2023-04-23T21:56:35.757Z,90.46
2023-04-23T21:58:53.845Z,90.70
2023-04-23T22:01:10.827Z,91.13
2023-04-23T22:03:38.295Z,90.39
2023-04-23T22:05:56.237Z,90.11
2023-04-23T22:08:13.327Z,91.08
2023-04-23T22:10:30.466Z,90.80
2023-04-23T22:12:47.372Z,91.41
2023-04-23T22:15:05.299Z,91.14
2023-04-23T22:17:22.354Z,91.08
2023-04-23T22:19:39.529Z,92.28
2023-04-23T22:21:56.603Z,92.18
2023-04-23T22:24:13.958Z,92.53
2023-04-23T22:26:31.233Z,92.75
2023-04-23T22:28:49.320Z,92.98
2023-04-23T22:31:07.255Z,92.17
2023-04-23T22:33:24.582Z,91.89
2023-04-23T22:35:41.834Z,91.89
2023-04-23T22:37:59.842Z,92.02
2023-04-23T22:40:17.076Z,92.23
2023-04-23T22:42:34.162Z,92.45
2023-04-23T22:44:51.434Z,92.45
2023-04-23T22:47:08.442Z,92.74
2023-04-23T22:49:26.452Z,92.85
2023-04-23T22:51:43.520Z,92.70
2023-04-23T22:54:01.507Z,92.58
2023-04-23T22:56:18.834Z,91.96
2023-04-23T22:58:35.869Z,92.15
2023-04-23T23:00:52.870Z,91.41
2023-04-23T23:03:10.290Z,91.10
2023-04-23T23:05:27.378Z,90.85
2023-04-23T23:07:46.244Z,90.70
2023-04-23T23:10:03.227Z,90.07
2023-04-23T23:12:20.587Z,89.93
2023-04-23T23:14:37.577Z,89.47
2023-04-23T23:16:54.725Z,89.33
2023-04-23T23:19:11.807Z,89.26
2023-04-23T23:21:28.844Z,89.64
2023-04-23T23:23:45.992Z,89.26
2023-04-23T23:26:02.967Z,89.28
2023-04-23T23:28:21.238Z,89.19
2023-04-23T23:30:38.207Z,89.59
2023-04-23T23:32:55.525Z,89.95
2023-04-23T23:35:12.847Z,90.67
2023-04-23T23:37:30.090Z,90.50
2023-04-23T23:39:47.535Z,90.63
2023-04-23T23:42:06.947Z,90.60
2023-04-23T23:44:24.229Z,89.64
2023-04-23T23:46:41.508Z,89.50
2023-04-23T23:48:58.526Z,89.02
2023-04-23T23:51:15.837Z,88.52
2023-04-23T23:53:32.691Z,88.58
2023-04-23T23:55:50.398Z,88.43
2023-04-23T23:58:07.724Z,87.38
